Manistique, MI

9:42 PM EDT on July 27, 2017 (GMT -0400)
Schoolcraft County

Weather History for KISQ - July, 2013

Change the Weather History Date:

Wednesday, July 10, 2013

  Actual Average Record
Temperature  
Mean Temperature 63 °F -  
Max Temperature 72 °F 75 °F 95 °F (1966)
Min Temperature 54 °F 53 °F 37 °F (1968)
Degree Days  
Heating Degree Days 2    
Growing Degree Days 13 (Base 50)    
Moisture  
Dew Point 58 °F    
Average Humidity 75    
Maximum Humidity 99    
Minimum Humidity 50    
Precipitation  
Precipitation 0.01 in - - ()
Sea Level Pressure  
Sea Level Pressure 29.80 in    
Wind  
Wind Speed 11 mph (WNW)    
Max Wind Speed 24 mph    
Max Gust Speed 30 mph    
Visibility 10 miles    
Events Rain    
Averages and records for this station are not official NWS values.
T = Trace of Precipitation, MM = Missing Value Source: NWS Daily Summary

Daily Weather History Graph

Daily Weather History Graph

Search for Another Location

Airport or City:

Trip Planner

Search our weather history database for the weather conditions in past years. The results will help you decide how hot, cold, wet, or windy it might be!

Date:

Astronomy

Jul. 10, 2013 Rise Set
Actual Time 6:04 AM EDT 9:35 PM EDT
Civil Twilight 5:27 AM EDT 10:12 PM EDT
Nautical Twilight 4:37 AM EDT 11:02 PM EDT
Astronomical Twilight 3:32 AM EDT 12:06 AM EDT
Moon 8:35 AM EDT (7/10) 10:32 PM EDT (7/10)
Length of Visible Light 16h 45m
Length of Day
15h 30m
Waxing Crescent, 5% of the Moon is Illuminated
Jul 10
Waxing Crescent
Jul 15
First Quarter
Jul 22
Full
Jul 29
Last Quarter
Aug 6
New

Hourly Weather History & Observations

Time (EDT) Temp. Dew Point Humidity Pressure Visibility Wind Dir Wind Speed Gust Speed Precip Events Conditions
12:15 AM 65.5 °F 65.3 °F 99% 29.69 in 5.0 mi SSW 5.8 mph - N/A   Overcast
12:35 AM 65.5 °F 65.3 °F 99% 29.69 in 5.0 mi SW 4.6 mph - N/A   Overcast
12:54 AM 65.5 °F 65.3 °F 99% 29.68 in 4.0 mi SSW 9.2 mph - N/A Rain Rain
1:15 AM 65.3 °F 64.9 °F 99% 29.67 in 10.0 mi SW 12.7 mph - N/A   Overcast
1:35 AM 65.3 °F 64.9 °F 99% 29.67 in 7.0 mi SSW 9.2 mph 16.1 mph N/A   Overcast
1:54 AM 65.5 °F 65.3 °F 99% 29.65 in 10.0 mi SW 6.9 mph - N/A   Overcast
2:15 AM 66.4 °F 66.0 °F 99% 29.65 in 10.0 mi WSW 5.8 mph - N/A   Overcast
2:35 AM 68.9 °F 67.1 °F 94% 29.65 in 10.0 mi West 12.7 mph 19.6 mph 0.01 in   Overcast
2:55 AM 68.5 °F 67.1 °F 95% 29.66 in 10.0 mi West 11.5 mph 17.3 mph 0.01 in   Overcast
3:15 AM 68.4 °F 66.9 °F 95% 29.66 in 10.0 mi West 11.5 mph 20.7 mph N/A   Overcast
3:34 AM 68.2 °F 66.7 °F 95% 29.67 in 10.0 mi West 11.5 mph 17.3 mph N/A   Overcast
3:55 AM 68.0 °F 66.2 °F 94% 29.68 in 10.0 mi West 12.7 mph 20.7 mph N/A   Overcast
4:15 AM 67.6 °F 65.5 °F 93% 29.68 in 10.0 mi WNW 11.5 mph 17.3 mph N/A   Overcast
4:34 AM 67.1 °F 64.8 °F 92% 29.68 in 10.0 mi WNW 9.2 mph - N/A   Mostly Cloudy
4:55 AM 66.6 °F 64.8 °F 94% 29.69 in 10.0 mi West 8.1 mph - N/A   Mostly Cloudy
5:15 AM 66.6 °F 64.2 °F 92% 29.69 in 10.0 mi West 8.1 mph 16.1 mph N/A   Overcast
5:35 AM 66.6 °F 64.2 °F 92% 29.70 in 10.0 mi West 9.2 mph - N/A   Mostly Cloudy
5:55 AM 66.0 °F 63.5 °F 92% 29.70 in 10.0 mi West 11.5 mph 19.6 mph N/A   Scattered Clouds
6:14 AM 65.7 °F 63.1 °F 92% 29.71 in 10.0 mi WNW 16.1 mph 21.9 mph N/A   Scattered Clouds
6:35 AM 65.8 °F 63.5 °F 92% 29.72 in 10.0 mi NW 10.4 mph - N/A   Mostly Cloudy
6:55 AM 65.3 °F 62.6 °F 91% 29.73 in 10.0 mi WNW 16.1 mph 21.9 mph N/A   Overcast
7:14 AM 64.6 °F 60.1 °F 85% 29.73 in 10.0 mi WNW 16.1 mph 21.9 mph N/A   Overcast
7:35 AM 64.4 °F 59.5 °F 84% 29.74 in 10.0 mi WNW 15.0 mph 24.2 mph N/A   Mostly Cloudy
7:55 AM 64.0 °F 58.8 °F 83% 29.75 in 10.0 mi WNW 15.0 mph 23.0 mph N/A   Overcast
8:15 AM 63.5 °F 58.6 °F 84% 29.75 in 10.0 mi WNW 18.4 mph 25.3 mph N/A   Overcast
8:35 AM 63.0 °F 58.3 °F 85% 29.75 in 10.0 mi NW 18.4 mph 27.6 mph N/A   Overcast
8:54 AM 63.5 °F 58.5 °F 84% 29.76 in 10.0 mi NW 13.8 mph 24.2 mph N/A   Overcast
9:15 AM 63.3 °F 58.1 °F 83% 29.77 in 10.0 mi NW 17.3 mph 28.8 mph N/A   Overcast
9:34 AM 63.5 °F 57.7 °F 81% 29.78 in 10.0 mi NW 17.3 mph 27.6 mph N/A   Overcast
9:55 AM 64.6 °F 58.1 °F 79% 29.78 in 10.0 mi NW 24.2 mph 29.9 mph N/A   Overcast
10:15 AM 65.8 °F 58.5 °F 77% 29.78 in 10.0 mi NW 17.3 mph 27.6 mph N/A   Overcast
10:35 AM 66.9 °F 57.6 °F 72% 29.78 in 10.0 mi NW 15.0 mph 29.9 mph N/A   Mostly Cloudy
10:55 AM 66.6 °F 57.6 °F 73% 29.80 in 10.0 mi NW 11.5 mph 23.0 mph N/A   Mostly Cloudy
11:14 AM 67.8 °F 57.6 °F 70% 29.79 in 10.0 mi NW 15.0 mph 27.6 mph N/A   Overcast
11:35 AM 67.6 °F 56.8 °F 68% 29.80 in 10.0 mi NNW 17.3 mph 27.6 mph N/A   Mostly Cloudy
11:55 AM 69.1 °F 57.4 °F 66% 29.81 in 10.0 mi NW 17.3 mph 26.5 mph N/A   Mostly Cloudy
12:14 PM 69.8 °F 57.7 °F 65% 29.81 in 10.0 mi NW 16.1 mph 25.3 mph N/A   Mostly Cloudy
12:35 PM 70.5 °F 57.9 °F 64% 29.82 in 10.0 mi NW 11.5 mph 19.6 mph N/A   Overcast
12:55 PM 70.5 °F 57.0 °F 62% 29.83 in 10.0 mi NW 16.1 mph 24.2 mph N/A   Mostly Cloudy
1:14 PM 70.5 °F 56.5 °F 61% 29.83 in 10.0 mi NW 19.6 mph 26.5 mph N/A   Mostly Cloudy
1:35 PM 71.2 °F 56.3 °F 59% 29.84 in 10.0 mi NW 19.6 mph 28.8 mph N/A   Mostly Cloudy
1:54 PM 70.0 °F 56.3 °F 62% 29.86 in 10.0 mi NNW 18.4 mph 25.3 mph N/A   Overcast
2:15 PM 71.8 °F 56.3 °F 58% 29.86 in 10.0 mi NW 15.0 mph 24.2 mph N/A   Mostly Cloudy
2:35 PM 71.2 °F 57.0 °F 61% 29.87 in 10.0 mi NNW 13.8 mph 24.2 mph N/A   Mostly Cloudy
2:54 PM 71.1 °F 56.1 °F 59% 29.86 in 10.0 mi NNW 12.7 mph 20.7 mph N/A   Mostly Cloudy
3:15 PM 72.5 °F 56.8 °F 58% 29.87 in 10.0 mi NW 15.0 mph 20.7 mph N/A   Mostly Cloudy
3:35 PM 72.3 °F 55.6 °F 56% 29.87 in 10.0 mi NNW 13.8 mph 24.2 mph N/A   Mostly Cloudy
3:54 PM 71.8 °F 54.0 °F 53% 29.87 in 10.0 mi NW 12.7 mph 24.2 mph N/A   Scattered Clouds
4:15 PM 72.5 °F 54.1 °F 52% 29.87 in 10.0 mi NNW 16.1 mph 23.0 mph N/A   Mostly Cloudy
4:34 PM 72.0 °F 54.1 °F 53% 29.87 in 10.0 mi NNW 12.7 mph 24.2 mph N/A   Mostly Cloudy
4:55 PM 71.6 °F 53.6 °F 53% 29.87 in 10.0 mi NNW 17.3 mph 23.0 mph N/A   Mostly Cloudy
5:15 PM 72.3 °F 53.1 °F 51% 29.87 in 10.0 mi NNW 16.1 mph 23.0 mph N/A   Mostly Cloudy
5:35 PM 71.6 °F 53.1 °F 52% 29.88 in 10.0 mi NNW 12.7 mph 23.0 mph N/A   Scattered Clouds
5:55 PM 70.7 °F 53.4 °F 54% 29.88 in 10.0 mi NNW 6.9 mph 19.6 mph N/A   Mostly Cloudy
6:14 PM 72.0 °F 53.6 °F 52% 29.88 in 10.0 mi NNW 17.3 mph 24.2 mph N/A   Mostly Cloudy
6:35 PM 70.9 °F 52.7 °F 53% 29.89 in 10.0 mi NNW 16.1 mph 19.6 mph N/A   Mostly Cloudy
6:55 PM 69.6 °F 52.0 °F 53% 29.89 in 10.0 mi NNW 11.5 mph 20.7 mph N/A   Scattered Clouds
7:14 PM 70.3 °F 51.1 °F 50% 29.89 in 10.0 mi NW 13.8 mph 20.7 mph N/A   Scattered Clouds
7:35 PM 69.6 °F 50.9 °F 51% 29.89 in 10.0 mi NW 12.7 mph 19.6 mph N/A   Scattered Clouds
7:55 PM 68.9 °F 50.9 °F 53% 29.89 in 10.0 mi NW 17.3 mph 24.2 mph N/A   Scattered Clouds
8:14 PM 68.4 °F 51.3 °F 54% 29.90 in 10.0 mi NNW 13.8 mph - N/A   Clear
8:35 PM 67.5 °F 50.5 °F 55% 29.91 in 10.0 mi NW 12.7 mph 19.6 mph N/A   Clear
8:54 PM 66.2 °F 50.7 °F 57% 29.92 in 10.0 mi NW 6.9 mph 17.3 mph N/A   Clear
9:15 PM 64.4 °F 50.9 °F 62% 29.92 in 10.0 mi NW 5.8 mph - N/A   Clear
9:35 PM 61.9 °F 51.1 °F 68% 29.93 in 10.0 mi NW 3.5 mph - N/A   Clear
9:55 PM 59.2 °F 51.8 °F 77% 29.93 in 10.0 mi Calm Calm - N/A   Clear
10:15 PM 57.2 °F 51.4 °F 81% 29.94 in 10.0 mi Calm Calm - N/A   Clear
10:34 PM 56.1 °F 51.8 °F 85% 29.94 in 10.0 mi Calm Calm - N/A   Scattered Clouds
10:55 PM 55.4 °F 51.1 °F 85% 29.94 in 10.0 mi West 4.6 mph - N/A   Scattered Clouds
10:57 PM 55.9 °F 51.1 °F 84% 29.94 in 10.0 mi West 4.6 mph - N/A   Scattered Clouds
11:48 PM 54.7 °F 51.1 °F 88% 29.95 in 10.0 mi Calm Calm - N/A   Mostly Cloudy
11:53 PM 54.1 °F 51.1 °F 89% 29.95 in 10.0 mi Calm Calm - N/A   Scattered Clouds